sensor_id;sensor_type;location;lat;lon;timestamp;P1;durP1;ratioP1;P2;durP2;ratioP2
12112;SDS011;6120;52.250;8.478;2023-03-03T00:00:42;84.75;;;25.02;;
12112;SDS011;6120;52.250;8.478;2023-03-03T00:03:09;88.78;;;25.70;;
12112;SDS011;6120;52.250;8.478;2023-03-03T00:05:37;96.50;;;25.35;;
12112;SDS011;6120;52.250;8.478;2023-03-03T00:08:03;79.85;;;25.10;;
12112;SDS011;6120;52.250;8.478;2023-03-03T00:10:30;93.15;;;25.08;;
12112;SDS011;6120;52.250;8.478;2023-03-03T00:12:57;99.28;;;25.08;;
12112;SDS011;6120;52.250;8.478;2023-03-03T00:15:24;89.07;;;22.55;;
12112;SDS011;6120;52.250;8.478;2023-03-03T00:17:51;85.75;;;23.77;;
12112;SDS011;6120;52.250;8.478;2023-03-03T00:20:22;94.60;;;25.88;;
12112;SDS011;6120;52.250;8.478;2023-03-03T00:22:51;97.07;;;26.77;;
12112;SDS011;6120;52.250;8.478;2023-03-03T00:27:44;82.95;;;22.50;;
12112;SDS011;6120;52.250;8.478;2023-03-03T00:30:24;73.43;;;22.00;;
12112;SDS011;6120;52.250;8.478;2023-03-03T00:32:52;70.88;;;22.10;;
12112;SDS011;6120;52.250;8.478;2023-03-03T00:37:54;82.78;;;22.77;;
12112;SDS011;6120;52.250;8.478;2023-03-03T00:40:23;73.57;;;22.10;;
12112;SDS011;6120;52.250;8.478;2023-03-03T00:42:52;79.10;;;23.17;;
12112;SDS011;6120;52.250;8.478;2023-03-03T00:47:57;71.80;;;23.02;;
12112;SDS011;6120;52.250;8.478;2023-03-03T00:50:28;76.43;;;23.55;;
12112;SDS011;6120;52.250;8.478;2023-03-03T00:55:30;78.32;;;22.33;;
12112;SDS011;6120;52.250;8.478;2023-03-03T00:57:57;92.73;;;26.80;;
12112;SDS011;6120;52.250;8.478;2023-03-03T01:00:24;88.15;;;24.48;;
12112;SDS011;6120;52.250;8.478;2023-03-03T01:02:51;88.22;;;25.25;;
12112;SDS011;6120;52.250;8.478;2023-03-03T01:05:18;86.30;;;24.73;;
12112;SDS011;6120;52.250;8.478;2023-03-03T01:07:45;89.55;;;25.67;;
12112;SDS011;6120;52.250;8.478;2023-03-03T01:10:12;113.13;;;26.42;;
12112;SDS011;6120;52.250;8.478;2023-03-03T01:12:39;95.70;;;23.92;;
12112;SDS011;6120;52.250;8.478;2023-03-03T01:15:06;87.57;;;23.73;;
12112;SDS011;6120;52.250;8.478;2023-03-03T01:17:34;92.88;;;23.77;;
12112;SDS011;6120;52.250;8.478;2023-03-03T01:20:02;76.33;;;22.83;;
12112;SDS011;6120;52.250;8.478;2023-03-03T01:22:29;76.82;;;21.90;;
12112;SDS011;6120;52.250;8.478;2023-03-03T01:24:56;84.03;;;20.13;;
12112;SDS011;6120;52.250;8.478;2023-03-03T01:27:25;78.13;;;20.33;;
12112;SDS011;6120;52.250;8.478;2023-03-03T01:29:53;61.45;;;18.67;;
12112;SDS011;6120;52.250;8.478;2023-03-03T01:32:24;66.93;;;19.50;;
12112;SDS011;6120;52.250;8.478;2023-03-03T01:34:52;69.80;;;19.17;;
12112;SDS011;6120;52.250;8.478;2023-03-03T01:37:20;62.38;;;18.95;;
12112;SDS011;6120;52.250;8.478;2023-03-03T01:39:47;72.22;;;18.55;;
12112;SDS011;6120;52.250;8.478;2023-03-03T01:42:15;62.53;;;18.70;;
12112;SDS011;6120;52.250;8.478;2023-03-03T01:44:42;65.80;;;19.30;;
12112;SDS011;6120;52.250;8.478;2023-03-03T01:47:21;80.50;;;21.02;;
12112;SDS011;6120;52.250;8.478;2023-03-03T01:52:30;71.97;;;18.88;;
12112;SDS011;6120;52.250;8.478;2023-03-03T01:55:00;58.17;;;17.10;;
12112;SDS011;6120;52.250;8.478;2023-03-03T01:57:33;71.70;;;19.17;;
12112;SDS011;6120;52.250;8.478;2023-03-03T02:00:03;65.15;;;17.33;;
12112;SDS011;6120;52.250;8.478;2023-03-03T02:04:57;58.70;;;17.55;;
12112;SDS011;6120;52.250;8.478;2023-03-03T02:07:24;59.65;;;17.60;;
12112;SDS011;6120;52.250;8.478;2023-03-03T02:09:56;68.47;;;20.15;;
12112;SDS011;6120;52.250;8.478;2023-03-03T02:12:27;59.03;;;16.08;;
12112;SDS011;6120;52.250;8.478;2023-03-03T02:14:57;68.18;;;19.33;;
12112;SDS011;6120;52.250;8.478;2023-03-03T02:17:24;57.30;;;17.50;;
12112;SDS011;6120;52.250;8.478;2023-03-03T02:19:53;59.75;;;18.67;;
12112;SDS011;6120;52.250;8.478;2023-03-03T02:22:43;60.90;;;16.77;;
12112;SDS011;6120;52.250;8.478;2023-03-03T02:26:20;69.05;;;18.52;;
12112;SDS011;6120;52.250;8.478;2023-03-03T02:30:56;66.80;;;17.83;;
12112;SDS011;6120;52.250;8.478;2023-03-03T02:33:24;62.75;;;18.00;;
12112;SDS011;6120;52.250;8.478;2023-03-03T02:35:51;63.03;;;17.25;;
12112;SDS011;6120;52.250;8.478;2023-03-03T02:44:11;62.67;;;15.52;;
12112;SDS011;6120;52.250;8.478;2023-03-03T02:46:40;62.97;;;17.75;;
12112;SDS011;6120;52.250;8.478;2023-03-03T02:49:08;61.03;;;17.15;;
12112;SDS011;6120;52.250;8.478;2023-03-03T02:51:37;67.13;;;18.00;;
12112;SDS011;6120;52.250;8.478;2023-03-03T02:54:05;68.60;;;18.50;;
12112;SDS011;6120;52.250;8.478;2023-03-03T02:56:32;63.83;;;17.30;;
12112;SDS011;6120;52.250;8.478;2023-03-03T02:58:59;59.50;;;17.25;;
12112;SDS011;6120;52.250;8.478;2023-03-03T03:01:26;62.83;;;17.85;;
12112;SDS011;6120;52.250;8.478;2023-03-03T03:03:53;74.20;;;19.77;;
12112;SDS011;6120;52.250;8.478;2023-03-03T03:06:20;72.20;;;19.25;;
12112;SDS011;6120;52.250;8.478;2023-03-03T03:08:46;77.20;;;20.02;;
12112;SDS011;6120;52.250;8.478;2023-03-03T03:11:13;68.78;;;18.33;;
12112;SDS011;6120;52.250;8.478;2023-03-03T03:13:39;69.72;;;18.15;;
12112;SDS011;6120;52.250;8.478;2023-03-03T03:16:06;71.03;;;18.17;;
12112;SDS011;6120;52.250;8.478;2023-03-03T03:18:33;75.13;;;19.60;;
12112;SDS011;6120;52.250;8.478;2023-03-03T03:21:07;64.35;;;17.50;;
12112;SDS011;6120;52.250;8.478;2023-03-03T03:23:34;60.63;;;16.73;;
12112;SDS011;6120;52.250;8.478;2023-03-03T03:26:01;73.80;;;18.40;;
12112;SDS011;6120;52.250;8.478;2023-03-03T03:28:28;65.50;;;19.77;;
12112;SDS011;6120;52.250;8.478;2023-03-03T03:30:54;70.70;;;18.35;;
12112;SDS011;6120;52.250;8.478;2023-03-03T03:33:22;72.75;;;18.90;;
12112;SDS011;6120;52.250;8.478;2023-03-03T03:35:48;80.45;;;19.48;;
12112;SDS011;6120;52.250;8.478;2023-03-03T03:38:15;73.90;;;18.70;;
12112;SDS011;6120;52.250;8.478;2023-03-03T03:40:42;70.43;;;18.02;;
12112;SDS011;6120;52.250;8.478;2023-03-03T03:43:09;74.00;;;19.50;;
12112;SDS011;6120;52.250;8.478;2023-03-03T03:45:35;76.63;;;18.10;;
12112;SDS011;6120;52.250;8.478;2023-03-03T03:48:02;72.68;;;18.20;;
12112;SDS011;6120;52.250;8.478;2023-03-03T03:50:29;77.13;;;19.27;;
12112;SDS011;6120;52.250;8.478;2023-03-03T03:52:55;62.05;;;16.63;;
12112;SDS011;6120;52.250;8.478;2023-03-03T03:55:22;80.22;;;18.60;;
12112;SDS011;6120;52.250;8.478;2023-03-03T03:57:49;71.82;;;18.13;;
12112;SDS011;6120;52.250;8.478;2023-03-03T04:00:16;61.97;;;17.77;;
12112;SDS011;6120;52.250;8.478;2023-03-03T04:02:42;72.28;;;17.67;;
12112;SDS011;6120;52.250;8.478;2023-03-03T04:05:09;64.53;;;18.52;;
12112;SDS011;6120;52.250;8.478;2023-03-03T04:07:36;63.25;;;16.38;;
12112;SDS011;6120;52.250;8.478;2023-03-03T04:10:03;67.75;;;17.30;;
12112;SDS011;6120;52.250;8.478;2023-03-03T04:12:30;66.10;;;17.30;;
12112;SDS011;6120;52.250;8.478;2023-03-03T04:15:04;72.20;;;18.83;;
12112;SDS011;6120;52.250;8.478;2023-03-03T04:19:58;70.10;;;17.85;;
12112;SDS011;6120;52.250;8.478;2023-03-03T04:22:25;75.40;;;18.38;;
12112;SDS011;6120;52.250;8.478;2023-03-03T04:24:51;65.45;;;17.35;;
12112;SDS011;6120;52.250;8.478;2023-03-03T04:27:18;73.90;;;18.65;;
12112;SDS011;6120;52.250;8.478;2023-03-03T04:29:45;63.45;;;17.02;;
12112;SDS011;6120;52.250;8.478;2023-03-03T04:32:11;71.28;;;19.65;;
12112;SDS011;6120;52.250;8.478;2023-03-03T04:34:38;65.70;;;17.35;;
12112;SDS011;6120;52.250;8.478;2023-03-03T04:37:05;68.35;;;16.67;;
12112;SDS011;6120;52.250;8.478;2023-03-03T04:39:32;89.68;;;19.90;;
12112;SDS011;6120;52.250;8.478;2023-03-03T04:41:58;72.88;;;16.13;;
12112;SDS011;6120;52.250;8.478;2023-03-03T04:44:25;70.40;;;17.33;;
12112;SDS011;6120;52.250;8.478;2023-03-03T04:46:52;71.85;;;17.83;;
12112;SDS011;6120;52.250;8.478;2023-03-03T04:49:18;65.25;;;17.40;;
12112;SDS011;6120;52.250;8.478;2023-03-03T04:51:45;65.95;;;18.02;;
12112;SDS011;6120;52.250;8.478;2023-03-03T04:54:11;66.63;;;17.95;;
12112;SDS011;6120;52.250;8.478;2023-03-03T04:56:38;69.18;;;19.48;;
12112;SDS011;6120;52.250;8.478;2023-03-03T04:59:05;68.80;;;17.58;;
12112;SDS011;6120;52.250;8.478;2023-03-03T05:01:31;69.75;;;18.35;;
12112;SDS011;6120;52.250;8.478;2023-03-03T05:03:58;72.25;;;19.50;;
12112;SDS011;6120;52.250;8.478;2023-03-03T05:06:25;71.22;;;17.90;;
12112;SDS011;6120;52.250;8.478;2023-03-03T05:08:51;82.57;;;21.88;;
12112;SDS011;6120;52.250;8.478;2023-03-03T05:11:18;70.82;;;19.60;;
12112;SDS011;6120;52.250;8.478;2023-03-03T05:13:44;76.10;;;18.35;;
12112;SDS011;6120;52.250;8.478;2023-03-03T05:16:11;74.55;;;19.65;;
12112;SDS011;6120;52.250;8.478;2023-03-03T05:18:38;83.70;;;19.63;;
12112;SDS011;6120;52.250;8.478;2023-03-03T05:21:04;68.78;;;17.00;;
12112;SDS011;6120;52.250;8.478;2023-03-03T05:23:31;77.40;;;18.50;;
12112;SDS011;6120;52.250;8.478;2023-03-03T05:25:58;84.55;;;21.27;;
12112;SDS011;6120;52.250;8.478;2023-03-03T05:28:25;77.65;;;18.13;;
12112;SDS011;6120;52.250;8.478;2023-03-03T05:30:51;65.60;;;17.17;;
12112;SDS011;6120;52.250;8.478;2023-03-03T05:33:18;77.40;;;20.30;;
12112;SDS011;6120;52.250;8.478;2023-03-03T05:35:44;70.60;;;18.60;;
12112;SDS011;6120;52.250;8.478;2023-03-03T05:38:11;80.88;;;19.45;;
12112;SDS011;6120;52.250;8.478;2023-03-03T05:40:38;71.78;;;18.35;;
12112;SDS011;6120;52.250;8.478;2023-03-03T05:43:05;68.03;;;18.33;;
12112;SDS011;6120;52.250;8.478;2023-03-03T05:45:32;73.15;;;20.02;;
12112;SDS011;6120;52.250;8.478;2023-03-03T05:48:00;77.97;;;19.95;;
12112;SDS011;6120;52.250;8.478;2023-03-03T05:50:27;78.78;;;18.02;;
12112;SDS011;6120;52.250;8.478;2023-03-03T05:52:53;67.03;;;17.63;;
12112;SDS011;6120;52.250;8.478;2023-03-03T05:55:20;61.20;;;17.67;;
12112;SDS011;6120;52.250;8.478;2023-03-03T05:57:46;70.07;;;19.17;;
12112;SDS011;6120;52.250;8.478;2023-03-03T06:00:13;64.38;;;19.10;;
12112;SDS011;6120;52.250;8.478;2023-03-03T06:02:41;78.07;;;22.02;;
12112;SDS011;6120;52.250;8.478;2023-03-03T06:05:08;70.38;;;19.60;;
12112;SDS011;6120;52.250;8.478;2023-03-03T06:07:35;77.45;;;21.63;;
12112;SDS011;6120;52.250;8.478;2023-03-03T06:10:03;88.63;;;21.85;;
12112;SDS011;6120;52.250;8.478;2023-03-03T06:12:30;73.20;;;19.45;;
12112;SDS011;6120;52.250;8.478;2023-03-03T06:14:56;87.18;;;20.83;;
12112;SDS011;6120;52.250;8.478;2023-03-03T06:17:23;77.13;;;21.45;;
12112;SDS011;6120;52.250;8.478;2023-03-03T06:19:49;76.22;;;19.33;;
12112;SDS011;6120;52.250;8.478;2023-03-03T06:22:16;77.22;;;21.98;;
12112;SDS011;6120;52.250;8.478;2023-03-03T06:24:43;71.93;;;18.25;;
12112;SDS011;6120;52.250;8.478;2023-03-03T06:27:09;83.93;;;21.63;;
12112;SDS011;6120;52.250;8.478;2023-03-03T06:29:36;77.72;;;21.20;;
12112;SDS011;6120;52.250;8.478;2023-03-03T06:32:03;76.40;;;20.67;;
12112;SDS011;6120;52.250;8.478;2023-03-03T06:34:30;68.05;;;19.15;;
12112;SDS011;6120;52.250;8.478;2023-03-03T06:36:56;78.32;;;19.13;;
12112;SDS011;6120;52.250;8.478;2023-03-03T06:39:23;71.97;;;19.58;;
12112;SDS011;6120;52.250;8.478;2023-03-03T06:41:50;68.00;;;19.67;;
12112;SDS011;6120;52.250;8.478;2023-03-03T06:44:16;68.45;;;19.15;;
12112;SDS011;6120;52.250;8.478;2023-03-03T06:46:43;66.90;;;20.15;;
12112;SDS011;6120;52.250;8.478;2023-03-03T06:49:10;65.30;;;18.50;;
12112;SDS011;6120;52.250;8.478;2023-03-03T06:51:37;57.70;;;17.23;;
12112;SDS011;6120;52.250;8.478;2023-03-03T06:54:12;62.50;;;16.05;;
12112;SDS011;6120;52.250;8.478;2023-03-03T06:56:47;70.50;;;18.35;;
12112;SDS011;6120;52.250;8.478;2023-03-03T06:59:16;67.50;;;17.80;;
12112;SDS011;6120;52.250;8.478;2023-03-03T07:01:47;63.72;;;16.80;;
12112;SDS011;6120;52.250;8.478;2023-03-03T07:06:42;55.28;;;14.43;;
12112;SDS011;6120;52.250;8.478;2023-03-03T07:09:20;60.10;;;15.18;;
12112;SDS011;6120;52.250;8.478;2023-03-03T07:11:50;73.57;;;18.00;;
12112;SDS011;6120;52.250;8.478;2023-03-03T07:14:18;54.38;;;18.02;;
12112;SDS011;6120;52.250;8.478;2023-03-03T07:16:45;57.85;;;17.75;;
12112;SDS011;6120;52.250;8.478;2023-03-03T07:19:15;54.40;;;17.20;;
12112;SDS011;6120;52.250;8.478;2023-03-03T07:21:44;59.55;;;17.15;;
12112;SDS011;6120;52.250;8.478;2023-03-03T07:24:26;47.97;;;16.30;;
12112;SDS011;6120;52.250;8.478;2023-03-03T07:26:55;52.47;;;14.98;;
12112;SDS011;6120;52.250;8.478;2023-03-03T07:29:26;55.55;;;16.13;;
12112;SDS011;6120;52.250;8.478;2023-03-03T07:31:56;65.95;;;16.90;;
12112;SDS011;6120;52.250;8.478;2023-03-03T07:37:21;55.05;;;15.75;;
12112;SDS011;6120;52.250;8.478;2023-03-03T07:43:24;59.70;;;16.40;;
12112;SDS011;6120;52.250;8.478;2023-03-03T07:45:50;53.60;;;16.17;;
12112;SDS011;6120;52.250;8.478;2023-03-03T07:48:23;56.97;;;17.90;;
12112;SDS011;6120;52.250;8.478;2023-03-03T07:50:53;50.30;;;17.65;;
12112;SDS011;6120;52.250;8.478;2023-03-03T07:53:27;52.13;;;15.82;;
12112;SDS011;6120;52.250;8.478;2023-03-03T07:55:55;53.53;;;16.48;;
12112;SDS011;6120;52.250;8.478;2023-03-03T07:58:38;54.05;;;16.58;;
12112;SDS011;6120;52.250;8.478;2023-03-03T08:03:47;52.78;;;15.25;;
12112;SDS011;6120;52.250;8.478;2023-03-03T08:06:39;53.33;;;16.20;;
12112;SDS011;6120;52.250;8.478;2023-03-03T08:14:35;41.50;;;11.95;;
12112;SDS011;6120;52.250;8.478;2023-03-03T08:17:06;40.20;;;13.75;;
12112;SDS011;6120;52.250;8.478;2023-03-03T08:20:00;37.13;;;12.83;;
12112;SDS011;6120;52.250;8.478;2023-03-03T08:24:55;41.47;;;14.32;;
12112;SDS011;6120;52.250;8.478;2023-03-03T08:27:22;41.05;;;14.73;;
12112;SDS011;6120;52.250;8.478;2023-03-03T08:29:48;40.55;;;13.68;;
12112;SDS011;6120;52.250;8.478;2023-03-03T08:32:15;39.10;;;13.50;;
12112;SDS011;6120;52.250;8.478;2023-03-03T08:34:42;35.38;;;12.45;;
12112;SDS011;6120;52.250;8.478;2023-03-03T08:37:08;42.20;;;13.68;;
12112;SDS011;6120;52.250;8.478;2023-03-03T08:39:35;40.33;;;15.35;;
12112;SDS011;6120;52.250;8.478;2023-03-03T08:42:03;40.25;;;15.35;;
12112;SDS011;6120;52.250;8.478;2023-03-03T08:44:30;40.67;;;14.30;;
12112;SDS011;6120;52.250;8.478;2023-03-03T08:46:57;45.92;;;13.52;;
12112;SDS011;6120;52.250;8.478;2023-03-03T08:49:23;45.53;;;13.88;;
12112;SDS011;6120;52.250;8.478;2023-03-03T08:51:50;42.85;;;14.52;;
12112;SDS011;6120;52.250;8.478;2023-03-03T08:54:17;42.83;;;13.70;;
12112;SDS011;6120;52.250;8.478;2023-03-03T08:56:44;42.03;;;12.90;;
12112;SDS011;6120;52.250;8.478;2023-03-03T08:59:11;41.20;;;13.82;;
12112;SDS011;6120;52.250;8.478;2023-03-03T09:01:38;48.63;;;15.73;;
12112;SDS011;6120;52.250;8.478;2023-03-03T09:04:05;40.72;;;14.95;;
12112;SDS011;6120;52.250;8.478;2023-03-03T09:06:32;32.72;;;12.35;;
12112;SDS011;6120;52.250;8.478;2023-03-03T09:08:58;45.60;;;16.92;;
12112;SDS011;6120;52.250;8.478;2023-03-03T09:11:25;35.22;;;12.65;;
12112;SDS011;6120;52.250;8.478;2023-03-03T09:13:55;36.15;;;14.75;;
12112;SDS011;6120;52.250;8.478;2023-03-03T09:16:29;30.00;;;11.98;;
12112;SDS011;6120;52.250;8.478;2023-03-03T09:18:58;31.63;;;12.05;;
12112;SDS011;6120;52.250;8.478;2023-03-03T09:21:27;33.90;;;13.30;;
12112;SDS011;6120;52.250;8.478;2023-03-03T09:23:58;31.75;;;13.18;;
12112;SDS011;6120;52.250;8.478;2023-03-03T09:26:29;34.70;;;12.40;;
12112;SDS011;6120;52.250;8.478;2023-03-03T09:31:49;29.95;;;12.68;;
12112;SDS011;6120;52.250;8.478;2023-03-03T09:37:00;34.65;;;12.68;;
12112;SDS011;6120;52.250;8.478;2023-03-03T09:39:30;35.55;;;13.05;;
12112;SDS011;6120;52.250;8.478;2023-03-03T09:42:19;30.40;;;11.23;;
12112;SDS011;6120;52.250;8.478;2023-03-03T09:45:23;30.92;;;11.60;;
12112;SDS011;6120;52.250;8.478;2023-03-03T09:50:35;30.85;;;11.57;;
12112;SDS011;6120;52.250;8.478;2023-03-03T10:06:37;30.23;;;11.57;;
12112;SDS011;6120;52.250;8.478;2023-03-03T10:12:40;25.38;;;10.65;;
12112;SDS011;6120;52.250;8.478;2023-03-03T10:17:52;37.80;;;15.40;;
12112;SDS011;6120;52.250;8.478;2023-03-03T10:20:36;28.92;;;12.07;;
12112;SDS011;6120;52.250;8.478;2023-03-03T10:23:18;30.50;;;11.98;;
12112;SDS011;6120;52.250;8.478;2023-03-03T10:26:03;29.83;;;11.77;;
12112;SDS011;6120;52.250;8.478;2023-03-03T10:52:54;40.65;;;14.73;;
12112;SDS011;6120;52.250;8.478;2023-03-03T10:55:28;32.88;;;13.40;;
12112;SDS011;6120;52.250;8.478;2023-03-03T11:00:34;31.30;;;12.65;;
12112;SDS011;6120;52.250;8.478;2023-03-03T11:06:24;32.63;;;13.43;;
12112;SDS011;6120;52.250;8.478;2023-03-03T11:17:15;33.58;;;11.93;;
12112;SDS011;6120;52.250;8.478;2023-03-03T11:41:40;38.00;;;12.40;;
12112;SDS011;6120;52.250;8.478;2023-03-03T11:49:49;29.83;;;12.02;;
12112;SDS011;6120;52.250;8.478;2023-03-03T11:58:07;32.45;;;12.27;;
12112;SDS011;6120;52.250;8.478;2023-03-03T12:00:48;42.38;;;15.23;;
12112;SDS011;6120;52.250;8.478;2023-03-03T12:12:02;36.83;;;12.68;;
12112;SDS011;6120;52.250;8.478;2023-03-03T12:17:16;39.00;;;14.02;;
12112;SDS011;6120;52.250;8.478;2023-03-03T12:22:56;33.83;;;13.75;;
12112;SDS011;6120;52.250;8.478;2023-03-03T12:28:37;39.25;;;14.70;;
12112;SDS011;6120;52.250;8.478;2023-03-03T12:33:53;39.90;;;13.98;;
12112;SDS011;6120;52.250;8.478;2023-03-03T12:55:43;47.15;;;15.35;;
12112;SDS011;6120;52.250;8.478;2023-03-03T12:58:48;46.22;;;15.07;;
12112;SDS011;6120;52.250;8.478;2023-03-03T13:21:09;59.88;;;16.42;;
12112;SDS011;6120;52.250;8.478;2023-03-03T13:26:14;53.53;;;16.20;;
12112;SDS011;6120;52.250;8.478;2023-03-03T13:31:46;49.22;;;16.73;;
12112;SDS011;6120;52.250;8.478;2023-03-03T13:37:21;43.28;;;15.63;;
12112;SDS011;6120;52.250;8.478;2023-03-03T13:40:00;47.80;;;16.58;;
12112;SDS011;6120;52.250;8.478;2023-03-03T13:42:59;48.50;;;15.60;;
12112;SDS011;6120;52.250;8.478;2023-03-03T13:45:49;42.83;;;14.75;;
12112;SDS011;6120;52.250;8.478;2023-03-03T13:48:26;44.23;;;15.10;;
12112;SDS011;6120;52.250;8.478;2023-03-03T14:02:33;36.80;;;14.77;;
12112;SDS011;6120;52.250;8.478;2023-03-03T14:07:58;36.60;;;13.73;;
12112;SDS011;6120;52.250;8.478;2023-03-03T14:18:38;30.08;;;12.23;;
12112;SDS011;6120;52.250;8.478;2023-03-03T14:21:08;29.48;;;11.73;;
12112;SDS011;6120;52.250;8.478;2023-03-03T14:23:47;26.83;;;11.55;;
12112;SDS011;6120;52.250;8.478;2023-03-03T14:26:17;31.73;;;12.02;;
12112;SDS011;6120;52.250;8.478;2023-03-03T14:28:47;31.88;;;12.20;;
12112;SDS011;6120;52.250;8.478;2023-03-03T14:36:40;24.30;;;9.63;;
12112;SDS011;6120;52.250;8.478;2023-03-03T14:41:58;22.15;;;8.98;;
12112;SDS011;6120;52.250;8.478;2023-03-03T14:49:36;20.17;;;9.43;;
12112;SDS011;6120;52.250;8.478;2023-03-03T14:54:37;18.17;;;7.90;;
12112;SDS011;6120;52.250;8.478;2023-03-03T14:57:14;24.58;;;9.50;;
12112;SDS011;6120;52.250;8.478;2023-03-03T14:59:54;18.33;;;9.15;;
12112;SDS011;6120;52.250;8.478;2023-03-03T15:02:26;18.50;;;9.52;;
12112;SDS011;6120;52.250;8.478;2023-03-03T15:07:43;18.60;;;8.15;;
12112;SDS011;6120;52.250;8.478;2023-03-03T15:10:10;19.25;;;8.90;;
12112;SDS011;6120;52.250;8.478;2023-03-03T15:12:40;19.40;;;9.07;;
12112;SDS011;6120;52.250;8.478;2023-03-03T15:17:52;18.52;;;8.80;;
12112;SDS011;6120;52.250;8.478;2023-03-03T15:42:03;22.05;;;9.90;;
12112;SDS011;6120;52.250;8.478;2023-03-03T15:47:29;25.65;;;10.00;;
12112;SDS011;6120;52.250;8.478;2023-03-03T15:53:18;24.25;;;10.52;;
12112;SDS011;6120;52.250;8.478;2023-03-03T16:01:19;22.05;;;9.75;;
12112;SDS011;6120;52.250;8.478;2023-03-03T16:03:54;23.45;;;10.10;;
12112;SDS011;6120;52.250;8.478;2023-03-03T16:15:10;18.92;;;8.88;;
12112;SDS011;6120;52.250;8.478;2023-03-03T16:20:35;21.70;;;8.27;;
12112;SDS011;6120;52.250;8.478;2023-03-03T16:26:14;22.27;;;9.95;;
12112;SDS011;6120;52.250;8.478;2023-03-03T16:28:50;20.67;;;9.05;;
12112;SDS011;6120;52.250;8.478;2023-03-03T16:31:42;19.25;;;8.82;;
12112;SDS011;6120;52.250;8.478;2023-03-03T16:34:16;17.75;;;8.98;;
12112;SDS011;6120;52.250;8.478;2023-03-03T16:36:51;20.35;;;8.55;;
12112;SDS011;6120;52.250;8.478;2023-03-03T16:39:35;17.95;;;8.65;;
12112;SDS011;6120;52.250;8.478;2023-03-03T16:45:02;19.55;;;7.97;;
12112;SDS011;6120;52.250;8.478;2023-03-03T16:53:06;20.05;;;8.65;;
12112;SDS011;6120;52.250;8.478;2023-03-03T16:59:34;21.63;;;8.98;;
12112;SDS011;6120;52.250;8.478;2023-03-03T17:01:57;18.25;;;8.40;;
12112;SDS011;6120;52.250;8.478;2023-03-03T17:04:55;18.08;;;8.10;;
12112;SDS011;6120;52.250;8.478;2023-03-03T17:07:48;19.63;;;9.02;;
12112;SDS011;6120;52.250;8.478;2023-03-03T17:16:01;19.80;;;9.90;;
12112;SDS011;6120;52.250;8.478;2023-03-03T17:24:52;23.63;;;11.02;;
12112;SDS011;6120;52.250;8.478;2023-03-03T17:27:25;24.60;;;11.50;;
12112;SDS011;6120;52.250;8.478;2023-03-03T17:30:07;22.88;;;9.55;;
12112;SDS011;6120;52.250;8.478;2023-03-03T17:32:39;21.40;;;10.13;;
12112;SDS011;6120;52.250;8.478;2023-03-03T17:43:56;22.25;;;9.52;;
12112;SDS011;6120;52.250;8.478;2023-03-03T17:49:08;26.35;;;10.77;;
12112;SDS011;6120;52.250;8.478;2023-03-03T17:59:50;20.35;;;10.00;;
12112;SDS011;6120;52.250;8.478;2023-03-03T18:10:19;29.98;;;13.50;;
12112;SDS011;6120;52.250;8.478;2023-03-03T18:32:46;15.90;;;7.93;;
12112;SDS011;6120;52.250;8.478;2023-03-03T18:40:49;7.13;;;3.25;;
12112;SDS011;6120;52.250;8.478;2023-03-03T18:49:02;8.02;;;3.80;;
12112;SDS011;6120;52.250;8.478;2023-03-03T18:56:45;6.50;;;3.38;;
12112;SDS011;6120;52.250;8.478;2023-03-03T19:04:44;7.07;;;3.20;;
12112;SDS011;6120;52.250;8.478;2023-03-03T19:07:23;9.40;;;3.55;;
12112;SDS011;6120;52.250;8.478;2023-03-03T19:17:59;5.35;;;2.70;;
12112;SDS011;6120;52.250;8.478;2023-03-03T19:20:40;6.32;;;3.25;;
12112;SDS011;6120;52.250;8.478;2023-03-03T19:23:17;7.35;;;2.97;;
12112;SDS011;6120;52.250;8.478;2023-03-03T19:25:47;3.67;;;2.67;;
12112;SDS011;6120;52.250;8.478;2023-03-03T19:29:06;5.82;;;2.58;;
12112;SDS011;6120;52.250;8.478;2023-03-03T19:31:46;3.90;;;2.50;;
12112;SDS011;6120;52.250;8.478;2023-03-03T19:37:00;7.28;;;2.35;;
12112;SDS011;6120;52.250;8.478;2023-03-03T19:39:42;10.02;;;3.22;;
12112;SDS011;6120;52.250;8.478;2023-03-03T19:45:04;6.78;;;2.92;;
12112;SDS011;6120;52.250;8.478;2023-03-03T20:04:30;6.57;;;2.92;;
12112;SDS011;6120;52.250;8.478;2023-03-03T20:09:55;9.55;;;2.70;;
12112;SDS011;6120;52.250;8.478;2023-03-03T20:20:49;6.10;;;2.78;;
12112;SDS011;6120;52.250;8.478;2023-03-03T20:23:30;13.90;;;2.50;;
12112;SDS011;6120;52.250;8.478;2023-03-03T20:26:21;10.40;;;2.10;;
12112;SDS011;6120;52.250;8.478;2023-03-03T20:28:56;10.40;;;2.28;;
12112;SDS011;6120;52.250;8.478;2023-03-03T20:31:54;11.77;;;2.60;;
12112;SDS011;6120;52.250;8.478;2023-03-03T20:37:24;6.38;;;2.42;;
12112;SDS011;6120;52.250;8.478;2023-03-03T20:48:02;12.20;;;2.15;;
12112;SDS011;6120;52.250;8.478;2023-03-03T20:54:03;13.65;;;2.45;;
12112;SDS011;6120;52.250;8.478;2023-03-03T20:56:51;18.10;;;3.70;;
12112;SDS011;6120;52.250;8.478;2023-03-03T20:59:44;11.43;;;2.22;;
12112;SDS011;6120;52.250;8.478;2023-03-03T21:08:00;14.60;;;2.45;;
12112;SDS011;6120;52.250;8.478;2023-03-03T21:10:29;10.85;;;2.45;;
12112;SDS011;6120;52.250;8.478;2023-03-03T21:12:57;14.48;;;2.75;;
12112;SDS011;6120;52.250;8.478;2023-03-03T21:15:55;12.98;;;2.95;;
12112;SDS011;6120;52.250;8.478;2023-03-03T21:18:26;14.40;;;2.90;;
12112;SDS011;6120;52.250;8.478;2023-03-03T21:20:52;13.52;;;2.88;;
12112;SDS011;6120;52.250;8.478;2023-03-03T21:23:19;16.98;;;3.15;;
12112;SDS011;6120;52.250;8.478;2023-03-03T21:26:06;9.45;;;2.33;;
12112;SDS011;6120;52.250;8.478;2023-03-03T21:28:33;12.38;;;2.85;;
12112;SDS011;6120;52.250;8.478;2023-03-03T21:33:47;12.68;;;2.75;;
12112;SDS011;6120;52.250;8.478;2023-03-03T21:36:20;13.65;;;3.00;;
12112;SDS011;6120;52.250;8.478;2023-03-03T21:42:05;14.05;;;2.35;;
12112;SDS011;6120;52.250;8.478;2023-03-03T21:47:05;11.98;;;3.15;;
12112;SDS011;6120;52.250;8.478;2023-03-03T21:49:32;14.13;;;2.63;;
12112;SDS011;6120;52.250;8.478;2023-03-03T21:51:59;24.13;;;3.00;;
12112;SDS011;6120;52.250;8.478;2023-03-03T21:54:26;18.95;;;3.22;;
12112;SDS011;6120;52.250;8.478;2023-03-03T21:56:53;18.75;;;2.58;;
12112;SDS011;6120;52.250;8.478;2023-03-03T21:59:20;18.85;;;3.03;;
12112;SDS011;6120;52.250;8.478;2023-03-03T22:01:46;12.57;;;3.08;;
12112;SDS011;6120;52.250;8.478;2023-03-03T22:04:13;16.73;;;2.55;;
12112;SDS011;6120;52.250;8.478;2023-03-03T22:06:40;15.18;;;2.67;;
12112;SDS011;6120;52.250;8.478;2023-03-03T22:09:07;15.50;;;2.42;;
12112;SDS011;6120;52.250;8.478;2023-03-03T22:11:33;24.30;;;2.85;;
12112;SDS011;6120;52.250;8.478;2023-03-03T22:14:00;10.65;;;3.03;;
12112;SDS011;6120;52.250;8.478;2023-03-03T22:16:27;17.45;;;3.15;;
12112;SDS011;6120;52.250;8.478;2023-03-03T22:18:54;12.65;;;2.95;;
12112;SDS011;6120;52.250;8.478;2023-03-03T22:21:20;17.35;;;3.03;;
12112;SDS011;6120;52.250;8.478;2023-03-03T22:23:47;17.05;;;3.78;;
12112;SDS011;6120;52.250;8.478;2023-03-03T22:26:14;22.35;;;3.03;;
12112;SDS011;6120;52.250;8.478;2023-03-03T22:28:40;14.52;;;2.92;;
12112;SDS011;6120;52.250;8.478;2023-03-03T22:31:09;12.02;;;2.60;;
12112;SDS011;6120;52.250;8.478;2023-03-03T22:33:36;23.27;;;3.63;;
12112;SDS011;6120;52.250;8.478;2023-03-03T22:36:03;10.38;;;2.70;;
12112;SDS011;6120;52.250;8.478;2023-03-03T22:38:29;16.23;;;3.58;;
12112;SDS011;6120;52.250;8.478;2023-03-03T22:40:56;14.38;;;3.42;;
12112;SDS011;6120;52.250;8.478;2023-03-03T22:43:23;12.82;;;2.65;;
12112;SDS011;6120;52.250;8.478;2023-03-03T22:45:50;15.60;;;2.90;;
12112;SDS011;6120;52.250;8.478;2023-03-03T22:48:17;20.35;;;3.80;;